createdAt,value
2023-03-22T00:01:32.470Z,100123.10
2023-03-22T00:04:03.542Z,100121.45
2023-03-22T00:06:34.226Z,100117.73
2023-03-22T00:09:05.078Z,100113.21
2023-03-22T00:11:35.702Z,100110.16
2023-03-22T00:14:06.303Z,100104.91
2023-03-22T00:16:37.138Z,100104.53
2023-03-22T00:19:07.826Z,100105.33
2023-03-22T00:21:38.569Z,100105.50
2023-03-22T00:24:10.384Z,100105.97
2023-03-22T00:26:41.321Z,100105.39
2023-03-22T00:29:11.925Z,100103.20
2023-03-22T00:31:42.775Z,100100.59
2023-03-22T00:34:13.540Z,100098.54
2023-03-22T00:36:44.147Z,100096.82
2023-03-22T00:39:14.762Z,100091.85
2023-03-22T00:41:45.387Z,100091.39
2023-03-22T00:44:16.036Z,100082.71
2023-03-22T00:46:46.872Z,100078.56
2023-03-22T00:49:18.915Z,100078.17
2023-03-22T00:51:50.292Z,100068.77
2023-03-22T00:54:21.674Z,100062.75
2023-03-22T00:56:52.416Z,100069.54
2023-03-22T00:59:23.567Z,100065.11
2023-03-22T01:01:54.248Z,100064.02
2023-03-22T01:04:26.320Z,100069.20
2023-03-22T01:07:01.430Z,100072.17
2023-03-22T01:09:33.869Z,100073.71
2023-03-22T01:12:05.045Z,100068.37
2023-03-22T01:14:35.695Z,100069.41
2023-03-22T01:17:07.282Z,100067.61
2023-03-22T01:19:38.843Z,100062.27
2023-03-22T01:22:10.158Z,100064.08
2023-03-22T01:24:40.957Z,100062.43
2023-03-22T01:27:12.013Z,100061.77
2023-03-22T01:29:44.754Z,100061.81
2023-03-22T01:32:15.994Z,100053.73
2023-03-22T01:34:47.066Z,100048.61
2023-03-22T01:37:18.165Z,100039.85
2023-03-22T01:39:49.551Z,100042.84
2023-03-22T01:42:22.319Z,100043.58
2023-03-22T01:45:34.152Z,100041.00
2023-03-22T01:48:09.378Z,100039.48
2023-03-22T01:50:43.736Z,100036.46
2023-03-22T01:53:19.025Z,100033.17
2023-03-22T01:55:50.689Z,100029.74
2023-03-22T01:58:27.459Z,100028.66
2023-03-22T02:01:01.162Z,100031.86
2023-03-22T02:03:49.809Z,100026.14
2023-03-22T02:06:21.612Z,100027.35
2023-03-22T02:08:58.055Z,100031.84
2023-03-22T02:11:33.405Z,100026.55
2023-03-22T02:14:17.925Z,100024.36
2023-03-22T02:17:15.767Z,100030.93
2023-03-22T02:20:31.722Z,100032.05
2023-03-22T02:23:27.998Z,100032.94
2023-03-22T02:26:28.356Z,100027.70
2023-03-22T02:29:08.345Z,100028.95
2023-03-22T02:32:06.273Z,100029.70
2023-03-22T02:34:54.020Z,100037.33
2023-03-22T02:38:04.535Z,100037.19
2023-03-22T02:40:41.059Z,100030.06
2023-03-22T02:43:24.730Z,100025.94
2023-03-22T02:46:03.990Z,100026.06
2023-03-22T02:48:41.509Z,100028.55
2023-03-22T02:51:19.146Z,100025.39
2023-03-22T02:53:54.803Z,100025.14
2023-03-22T02:56:30.272Z,100026.45
2023-03-22T02:59:04.172Z,100021.13
2023-03-22T03:01:40.693Z,100015.70
2023-03-22T03:04:20.726Z,100015.88
2023-03-22T03:06:55.403Z,100018.12
2023-03-22T03:09:26.940Z,100023.43
2023-03-22T03:11:57.786Z,100021.88
2023-03-22T03:14:30.228Z,100024.80
2023-03-22T03:17:16.727Z,100025.15
2023-03-22T03:19:58.675Z,100024.27
2023-03-22T03:22:42.888Z,100024.55
2023-03-22T03:25:20.914Z,100023.27
2023-03-22T03:27:59.905Z,100020.46
2023-03-22T03:30:39.167Z,100019.00
2023-03-22T03:33:16.536Z,100016.90
2023-03-22T03:35:52.007Z,100019.44
2023-03-22T03:38:26.898Z,100016.63
2023-03-22T03:41:02.165Z,100012.04
2023-03-22T03:43:33.594Z,100010.13
2023-03-22T03:46:04.645Z,100016.27
2023-03-22T03:48:38.430Z,100016.86
2023-03-22T03:51:10.154Z,100023.70
2023-03-22T03:53:40.810Z,100018.50
2023-03-22T03:56:13.098Z,100015.70
2023-03-22T03:58:47.629Z,100016.98
2023-03-22T04:01:19.672Z,100016.70
2023-03-22T04:04:11.365Z,100017.77
2023-03-22T04:06:50.448Z,100019.67
2023-03-22T04:09:25.004Z,100020.48
2023-03-22T04:11:58.187Z,100021.83
2023-03-22T04:14:29.426Z,100024.70
2023-03-22T04:17:01.566Z,100025.40
2023-03-22T04:19:34.134Z,100022.89
2023-03-22T04:22:05.063Z,100022.04
2023-03-22T04:24:37.883Z,100020.62
2023-03-22T04:27:09.484Z,100023.11
2023-03-22T04:29:55.956Z,100018.09
2023-03-22T04:32:47.291Z,100019.06
2023-03-22T04:35:18.594Z,100027.13
2023-03-22T04:37:49.831Z,100025.64
2023-03-22T04:40:26.492Z,100020.44
2023-03-22T04:43:09.918Z,100025.27
2023-03-22T04:46:02.118Z,100022.59
2023-03-22T04:48:39.163Z,100019.52
2023-03-22T04:51:11.960Z,100014.34
2023-03-22T04:53:48.669Z,100019.00
2023-03-22T04:56:19.975Z,100020.81
2023-03-22T04:58:52.809Z,100022.63
2023-03-22T05:01:23.592Z,100019.63
2023-03-22T05:04:00.788Z,100020.55
2023-03-22T05:06:32.801Z,100015.41
2023-03-22T05:09:12.455Z,100019.48
2023-03-22T05:11:43.808Z,100022.91
2023-03-22T05:14:24.674Z,100018.29
2023-03-22T05:16:55.738Z,100015.80
2023-03-22T05:19:26.433Z,100012.39
2023-03-22T05:21:58.615Z,100011.61
2023-03-22T05:24:39.986Z,100013.84
2023-03-22T05:27:14.265Z,100014.75
2023-03-22T05:29:46.893Z,100018.40
2023-03-22T05:32:29.222Z,100017.25
2023-03-22T05:35:03.648Z,100012.86
2023-03-22T05:37:38.858Z,100014.52
2023-03-22T05:40:11.629Z,100016.38
2023-03-22T05:42:46.581Z,100012.77
2023-03-22T05:45:25.122Z,100013.15
2023-03-22T05:48:07.113Z,100014.95
2023-03-22T05:50:39.050Z,100016.92
2023-03-22T05:53:11.604Z,100013.77
2023-03-22T05:56:00.826Z,100009.67
2023-03-22T05:58:33.633Z,100009.30
2023-03-22T06:01:10.977Z,100006.90
2023-03-22T06:03:51.637Z,100001.30
2023-03-22T06:06:29.253Z,100000.48
2023-03-22T06:09:17.697Z,100003.80
2023-03-22T06:11:52.287Z,100012.12
2023-03-22T06:14:23.360Z,100020.95
2023-03-22T06:17:06.790Z,100007.73
2023-03-22T06:19:37.591Z,99999.84
2023-03-22T06:22:08.846Z,100000.17
2023-03-22T06:24:40.819Z,99996.75
2023-03-22T06:27:12.374Z,99996.80
2023-03-22T06:29:43.875Z,99990.94
2023-03-22T06:32:15.865Z,99990.52
2023-03-22T06:34:46.886Z,99994.64
2023-03-22T06:37:18.345Z,99999.95
2023-03-22T06:39:49.040Z,100002.73
2023-03-22T06:42:20.300Z,99999.34
2023-03-22T06:44:52.570Z,100002.90
2023-03-22T06:47:33.012Z,99997.52
2023-03-22T06:50:31.048Z,99996.98
2023-03-22T06:53:10.662Z,99995.73
2023-03-22T06:55:42.197Z,99999.89
2023-03-22T06:58:19.020Z,99997.66
2023-03-22T07:00:49.745Z,100001.73
2023-03-22T07:03:21.862Z,99999.94
2023-03-22T07:06:09.600Z,100004.48
2023-03-22T07:08:42.658Z,100002.67
2023-03-22T07:11:14.322Z,99999.50
2023-03-22T07:13:46.395Z,99997.14
2023-03-22T07:16:20.773Z,99990.06
2023-03-22T07:18:55.998Z,99991.27
2023-03-22T07:21:26.957Z,99991.39
2023-03-22T07:24:03.379Z,99991.66
2023-03-22T07:26:34.484Z,99993.02
2023-03-22T07:29:05.453Z,99994.35
2023-03-22T07:31:37.896Z,99993.77
2023-03-22T07:34:11.438Z,99994.27
2023-03-22T07:37:20.912Z,99997.38
2023-03-22T07:39:51.944Z,99995.09
2023-03-22T07:42:23.206Z,99996.34
2023-03-22T07:45:24.450Z,99989.31
2023-03-22T07:48:17.982Z,99988.48
2023-03-22T07:50:59.725Z,99986.39
2023-03-22T07:53:30.473Z,99978.14
2023-03-22T07:56:01.237Z,99979.36
2023-03-22T07:58:32.237Z,99983.11
2023-03-22T08:01:09.329Z,99985.45
2023-03-22T08:03:58.410Z,99980.75
2023-03-22T08:06:37.499Z,99977.29
2023-03-22T08:09:09.429Z,99977.67
2023-03-22T08:11:40.571Z,99976.80
2023-03-22T08:14:11.345Z,99978.16
2023-03-22T08:16:44.291Z,99982.58
2023-03-22T08:19:15.819Z,99983.02
2023-03-22T08:21:47.492Z,99982.39
2023-03-22T08:24:29.134Z,99980.33
2023-03-22T08:27:09.126Z,99978.97
2023-03-22T08:29:51.041Z,99981.15
2023-03-22T08:32:21.912Z,99977.52
2023-03-22T08:34:52.894Z,99974.04
2023-03-22T08:37:23.723Z,99971.71
2023-03-22T08:39:55.511Z,99967.87
2023-03-22T08:42:41.460Z,99960.70
2023-03-22T08:45:13.418Z,99970.88
2023-03-22T08:47:49.112Z,99973.07
2023-03-22T08:50:21.905Z,99966.94
2023-03-22T08:53:02.869Z,99969.61
2023-03-22T08:55:36.611Z,99969.58
2023-03-22T08:58:19.897Z,99970.63
2023-03-22T09:00:56.987Z,99968.62
2023-03-22T09:03:45.529Z,99970.82
2023-03-22T09:06:16.539Z,99959.68
2023-03-22T09:08:52.151Z,99967.34
2023-03-22T09:11:25.180Z,99962.93
2023-03-22T09:13:55.904Z,99960.36
2023-03-22T09:16:27.627Z,99955.87
2023-03-22T09:18:58.624Z,99955.36
2023-03-22T09:21:30.868Z,99953.25
2023-03-22T09:24:14.266Z,99948.20
2023-03-22T09:26:48.421Z,99943.74
2023-03-22T09:29:21.010Z,99936.29
2023-03-22T09:31:51.688Z,99935.75
2023-03-22T09:34:25.696Z,99933.37
2023-03-22T09:36:58.662Z,99923.94
2023-03-22T09:39:31.697Z,99923.55
2023-03-22T09:42:07.185Z,99917.92
2023-03-22T09:44:43.894Z,99917.10
2023-03-22T09:47:26.952Z,99908.69
2023-03-22T09:50:06.839Z,99906.77
2023-03-22T09:52:37.610Z,99904.14
2023-03-22T09:55:20.694Z,99901.44
2023-03-22T09:58:02.600Z,99901.55
2023-03-22T10:00:42.340Z,99903.52
2023-03-22T10:03:24.608Z,99902.83
2023-03-22T10:06:00.904Z,99892.43
2023-03-22T10:08:45.883Z,99891.77
2023-03-22T10:11:28.247Z,99885.16
2023-03-22T10:14:06.894Z,99879.65
2023-03-22T10:16:38.967Z,99881.74
2023-03-22T10:19:20.792Z,99883.48
2023-03-22T10:21:55.645Z,99883.84
2023-03-22T10:24:30.839Z,99886.23
2023-03-22T10:27:02.221Z,99880.66
2023-03-22T10:29:37.151Z,99870.30
2023-03-22T10:32:17.965Z,99869.65
2023-03-22T10:34:49.421Z,99868.36
2023-03-22T10:37:24.885Z,99860.02
2023-03-22T10:39:57.807Z,99860.98
2023-03-22T10:42:31.545Z,99852.17
2023-03-22T10:45:05.555Z,99854.91
2023-03-22T10:47:41.535Z,99851.69
2023-03-22T10:50:19.496Z,99852.61
2023-03-22T10:52:56.664Z,99842.86
2023-03-22T10:55:28.074Z,99843.29
2023-03-22T10:58:12.148Z,99841.45
2023-03-22T11:00:48.352Z,99843.52
2023-03-22T11:03:30.405Z,99840.35
2023-03-22T11:06:09.240Z,99843.05
2023-03-22T11:08:46.896Z,99837.21
2023-03-22T11:11:21.997Z,99836.99
2023-03-22T11:13:56.578Z,99833.32
2023-03-22T11:16:28.136Z,99832.45
2023-03-22T11:19:02.474Z,99824.52
2023-03-22T11:21:34.653Z,99818.31
2023-03-22T11:24:08.214Z,99810.62
2023-03-22T11:26:41.630Z,99804.05
2023-03-22T11:29:18.107Z,99798.52
2023-03-22T11:31:56.191Z,99798.39
2023-03-22T11:34:27.144Z,99787.95
2023-03-22T11:37:01.985Z,99787.68
2023-03-22T11:39:32.892Z,99782.06
2023-03-22T11:42:06.766Z,99771.94
2023-03-22T11:44:38.580Z,99770.28
2023-03-22T11:47:13.529Z,99762.29
2023-03-22T11:49:48.065Z,99755.14
2023-03-22T11:52:23.075Z,99755.55
2023-03-22T11:54:54.773Z,99750.17
2023-03-22T11:57:28.516Z,99743.72
2023-03-22T12:00:07.293Z,99738.63
2023-03-22T12:02:44.895Z,99735.19
2023-03-22T12:05:22.928Z,99730.94
2023-03-22T12:08:01.100Z,99725.89
2023-03-22T12:10:38.180Z,99724.93
2023-03-22T12:13:16.868Z,99728.83
2023-03-22T12:15:53.866Z,99725.22
2023-03-22T12:18:33.456Z,99726.70
2023-03-22T12:21:04.482Z,99716.46
2023-03-22T12:23:36.433Z,99710.89
2023-03-22T12:26:14.085Z,99704.63
2023-03-22T12:28:52.615Z,99709.55
2023-03-22T12:31:27.806Z,99709.20
2023-03-22T12:34:01.143Z,99706.64
2023-03-22T12:36:41.512Z,99708.27
2023-03-22T12:39:31.104Z,99706.21
2023-03-22T12:42:04.981Z,99704.83
2023-03-22T12:44:39.302Z,99702.60
2023-03-22T12:47:20.071Z,99700.30
2023-03-22T12:49:55.475Z,99690.41
2023-03-22T12:52:44.733Z,99691.27
2023-03-22T12:55:22.911Z,99688.72
2023-03-22T12:57:54.687Z,99687.05
2023-03-22T13:00:30.363Z,99682.66
2023-03-22T13:03:10.593Z,99683.58
2023-03-22T13:05:41.816Z,99684.92
2023-03-22T13:08:13.029Z,99675.91
2023-03-22T13:11:03.214Z,99677.25
2023-03-22T13:13:45.762Z,99673.19
2023-03-22T13:16:42.897Z,99669.14
2023-03-22T13:19:36.937Z,99667.48
2023-03-22T13:22:18.986Z,99665.61
2023-03-22T13:25:08.701Z,99662.02
2023-03-22T13:27:52.613Z,99659.83
2023-03-22T13:30:29.410Z,99660.95
2023-03-22T13:33:04.232Z,99654.79
2023-03-22T13:35:46.805Z,99653.98
2023-03-22T13:38:24.503Z,99653.92
2023-03-22T13:41:00.726Z,99652.28
2023-03-22T13:43:35.006Z,99651.59
2023-03-22T13:46:28.861Z,99648.45
2023-03-22T13:49:29.728Z,99644.13
2023-03-22T13:52:03.705Z,99636.92
2023-03-22T13:54:41.505Z,99632.54
2023-03-22T13:57:38.979Z,99631.55
2023-03-22T14:00:34.233Z,99632.36
2023-03-22T14:03:12.866Z,99620.64
2023-03-22T14:05:48.391Z,99625.20
2023-03-22T14:08:26.496Z,99622.02
2023-03-22T14:11:02.681Z,99623.52
2023-03-22T14:13:39.298Z,99624.59
2023-03-22T14:16:19.008Z,99621.88
2023-03-22T14:18:51.349Z,99613.13
2023-03-22T14:21:30.124Z,99609.10
